Time;durP1;ratioP1;P1;durP2;ratioP2;P2;SDS_P1;SDS_P2;PMS_P1;PMS_P2;Temp;Humidity;BMP_temperature;BMP_pressure;BME280_temperature;BME280_humidity;BME280_pressure;Samples;Min_cycle;Max_cycle;Signal;HPM_P1;HPM_P2
2022/02/28 00:02:01;;;;;;;16.38;6.22;;;5.90;1.00;;;;;;5034192;28;20586;-70
2022/02/28 00:04:27;;;;;;;13.10;5.53;;;5.90;1.00;;;;;;5034195;28;20038;-70
2022/02/28 00:06:53;;;;;;;13.20;5.68;;;5.90;1.00;;;;;;5033897;28;20037;-70
2022/02/28 00:09:20;;;;;;;15.52;6.47;;;5.90;1.00;;;;;;5034064;28;20072;-70
2022/02/28 00:11:46;;;;;;;16.00;6.55;;;5.90;1.00;;;;;;5034072;28;20141;-70
2022/02/28 00:14:12;;;;;;;17.45;6.03;;;5.80;1.00;;;;;;5033959;28;20072;-70
2022/02/28 00:16:39;;;;;;;14.93;6.60;;;5.80;1.00;;;;;;5034015;28;20045;-70
2022/02/28 00:19:05;;;;;;;16.33;7.43;;;5.80;1.00;;;;;;5033685;28;20040;-70
2022/02/28 00:21:31;;;;;;;15.23;7.38;;;5.70;1.00;;;;;;5034058;28;20116;-70
2022/02/28 00:23:57;;;;;;;14.50;7.63;;;5.70;1.00;;;;;;5034301;28;20558;-69
2022/02/28 00:26:23;;;;;;;16.40;8.00;;;5.60;1.00;;;;;;5035409;28;20041;-69
2022/02/28 00:28:49;;;;;;;17.23;9.73;;;5.70;1.00;;;;;;5037470;28;20132;-70
2022/02/28 00:31:15;;;;;;;25.02;10.80;;;5.60;1.00;;;;;;5037607;28;20519;-70
2022/02/28 00:33:41;;;;;;;17.42;9.40;;;5.60;1.00;;;;;;5037400;28;20033;-69
2022/02/28 00:36:07;;;;;;;26.50;10.95;;;5.60;1.00;;;;;;5037640;28;20037;-70
2022/02/28 00:38:33;;;;;;;20.73;10.68;;;5.50;1.00;;;;;;5037498;28;20045;-70
2022/02/28 00:40:59;;;;;;;19.30;10.68;;;5.40;1.00;;;;;;5037586;28;20041;-69
2022/02/28 00:43:25;;;;;;;13.32;5.88;;;5.40;1.00;;;;;;5037509;28;20512;-69
2022/02/28 00:45:52;;;;;;;14.05;5.20;;;5.30;1.00;;;;;;5037293;28;20527;-69
2022/02/28 00:48:18;;;;;;;11.75;5.82;;;5.30;1.00;;;;;;5037389;28;20045;-69
2022/02/28 00:50:44;;;;;;;11.13;5.88;;;5.30;1.00;;;;;;5037410;28;20033;-70
2022/02/28 00:53:10;;;;;;;13.95;6.40;;;5.30;1.00;;;;;;5037337;28;20034;-70
2022/02/28 00:55:36;;;;;;;14.68;6.97;;;5.30;1.00;;;;;;5037270;28;20520;-70
2022/02/28 00:58:03;;;;;;;12.57;6.32;;;5.20;1.00;;;;;;5036890;28;20056;-70
2022/02/28 01:00:29;;;;;;;13.90;6.65;;;5.20;1.00;;;;;;5037302;28;20081;-70
2022/02/28 01:02:55;;;;;;;14.00;6.80;;;5.20;1.00;;;;;;5037533;28;20125;-70
2022/02/28 01:05:22;;;;;;;12.80;6.82;;;5.20;1.00;;;;;;5037319;28;20068;-70
2022/02/28 01:07:49;;;;;;;13.75;8.27;;;5.20;1.00;;;;;;5037057;28;20049;-70
2022/02/28 01:10:17;;;;;;;19.63;11.07;;;5.20;1.00;;;;;;5037635;28;20040;-70
2022/02/28 01:12:43;;;;;;;15.43;8.75;;;5.20;1.00;;;;;;5037306;28;20510;-69
2022/02/28 01:15:11;;;;;;;19.00;9.35;;;5.10;1.00;;;;;;5037067;28;20121;-70
2022/02/28 01:17:37;;;;;;;11.70;6.65;;;5.20;1.00;;;;;;5037291;28;20049;-70
2022/02/28 01:20:04;;;;;;;13.70;5.00;;;5.10;1.00;;;;;;5037707;28;20168;-70
2022/02/28 01:22:30;;;;;;;12.20;6.18;;;5.00;1.00;;;;;;5036885;28;20045;-70
2022/02/28 01:24:56;;;;;;;13.93;6.63;;;4.90;1.00;;;;;;5037070;28;20045;-70
2022/02/28 01:27:22;;;;;;;12.55;6.57;;;4.90;1.00;;;;;;5036592;28;20488;-70
2022/02/28 01:29:49;;;;;;;12.98;6.80;;;4.90;1.00;;;;;;5037084;28;20087;-70
2022/02/28 01:32:15;;;;;;;14.48;5.93;;;4.90;1.00;;;;;;5037054;28;20080;-70
2022/02/28 01:34:41;;;;;;;14.45;6.53;;;4.90;1.00;;;;;;5036668;28;20041;-70
2022/02/28 01:37:08;;;;;;;13.75;6.90;;;4.90;1.00;;;;;;5036621;28;20107;-70
2022/02/28 01:39:34;;;;;;;12.07;7.22;;;4.90;1.00;;;;;;5036552;28;20060;-70
2022/02/28 01:42:00;;;;;;;12.48;7.35;;;4.90;1.00;;;;;;5036702;28;20042;-70
2022/02/28 01:44:26;;;;;;;11.90;6.32;;;4.90;1.00;;;;;;5036751;28;20087;-70
2022/02/28 01:46:52;;;;;;;11.80;6.05;;;4.80;1.00;;;;;;5036708;28;20044;-70
2022/02/28 01:49:18;;;;;;;14.38;6.40;;;4.80;1.00;;;;;;5035990;28;20041;-70
2022/02/28 01:51:45;;;;;;;14.13;5.78;;;4.80;1.00;;;;;;5036270;28;20037;-70
2022/02/28 01:54:11;;;;;;;13.40;5.85;;;4.80;1.00;;;;;;5036746;28;20115;-70
2022/02/28 01:56:37;;;;;;;13.02;6.00;;;4.80;1.00;;;;;;5036499;28;20044;-70
2022/02/28 01:59:04;;;;;;;11.80;5.47;;;4.80;1.00;;;;;;5035819;28;20045;-70
2022/02/28 02:01:30;;;;;;;9.20;4.95;;;4.80;1.00;;;;;;5036460;28;20053;-70
2022/02/28 02:03:56;;;;;;;10.30;6.00;;;4.80;1.00;;;;;;5035985;28;20037;-70
2022/02/28 02:06:22;;;;;;;12.10;5.63;;;4.90;1.00;;;;;;5035930;28;20065;-69
2022/02/28 02:08:48;;;;;;;12.95;4.93;;;5.00;1.00;;;;;;5036705;28;20069;-70
2022/02/28 02:11:14;;;;;;;8.52;4.20;;;5.10;1.00;;;;;;5036645;28;20480;-70
2022/02/28 02:13:40;;;;;;;11.25;5.15;;;5.20;1.00;;;;;;5035845;28;20123;-70
2022/02/28 02:16:07;;;;;;;11.65;4.95;;;5.30;1.00;;;;;;5035926;28;20492;-70
2022/02/28 02:18:33;;;;;;;9.50;4.45;;;5.30;1.00;;;;;;5035677;28;20104;-69
2022/02/28 02:20:58;;;;;;;14.23;5.47;;;5.20;1.00;;;;;;5036074;28;20073;-70
2022/02/28 02:23:27;;;;;;;10.00;5.07;;;5.00;1.00;;;;;;5035693;28;20438;-70
2022/02/28 02:25:55;;;;;;;7.07;4.25;;;4.90;1.00;;;;;;5035484;28;20117;-70
2022/02/28 02:28:21;;;;;;;11.68;4.90;;;4.80;1.00;;;;;;5035826;28;20468;-70
2022/02/28 02:30:52;;;;;;;10.27;5.82;;;4.70;2.40;;;;;;5035873;28;20037;-70
2022/02/28 02:33:19;;;;;;;15.70;6.00;;;4.70;3.50;;;;;;5035594;28;20538;-70
2022/02/28 02:36:06;;;;;;;6.03;3.38;;;4.70;2.40;;;;;;5035732;28;20048;-70
2022/02/28 02:38:35;;;;;;;11.50;4.45;;;5.00;1.00;;;;;;5035444;28;20045;-69
2022/02/28 02:41:02;;;;;;;8.27;4.53;;;4.90;1.00;;;;;;5035260;28;20045;-70
2022/02/28 02:43:28;;;;;;;7.43;4.47;;;5.00;1.00;;;;;;5035286;28;20045;-69
2022/02/28 02:45:54;;;;;;;11.88;4.45;;;5.20;1.00;;;;;;5035074;28;20045;-70
2022/02/28 02:48:22;;;;;;;8.82;3.97;;;5.20;1.00;;;;;;5034946;28;20033;-70
2022/02/28 02:50:48;;;;;;;10.43;4.85;;;5.20;1.00;;;;;;5035986;28;20038;-70
2022/02/28 02:53:15;;;;;;;10.20;4.55;;;5.10;1.00;;;;;;5035398;28;20044;-70
2022/02/28 02:55:41;;;;;;;7.50;4.13;;;5.10;1.00;;;;;;5035362;28;20076;-70
2022/02/28 02:58:08;;;;;;;4.45;2.90;;;5.00;1.00;;;;;;5035196;28;20047;-70
2022/02/28 03:00:35;;;;;;;8.48;2.70;;;5.00;1.00;;;;;;5034680;28;20175;-70
2022/02/28 03:03:01;;;;;;;5.80;2.55;;;4.80;1.00;;;;;;5034918;28;20125;-70
2022/02/28 03:05:27;;;;;;;9.48;2.47;;;4.80;1.00;;;;;;5034624;28;20531;-70
2022/02/28 03:07:53;;;;;;;8.57;2.58;;;4.70;1.00;;;;;;5034835;28;20159;-70
2022/02/28 03:10:19;;;;;;;8.20;2.80;;;4.70;1.00;;;;;;5035161;28;20084;-70
2022/02/28 03:12:45;;;;;;;8.18;3.30;;;4.80;1.00;;;;;;5034505;28;20041;-70
2022/02/28 03:15:11;;;;;;;6.30;3.20;;;4.80;1.00;;;;;;5034742;28;20051;-70
2022/02/28 03:17:37;;;;;;;7.20;3.15;;;4.90;1.00;;;;;;5034351;28;20049;-70
2022/02/28 03:20:03;;;;;;;7.47;3.38;;;5.00;1.00;;;;;;5035045;28;20037;-70
2022/02/28 03:22:29;;;;;;;8.05;3.20;;;5.00;1.00;;;;;;5034540;28;20030;-70
2022/02/28 03:24:55;;;;;;;7.95;4.03;;;4.90;1.00;;;;;;5016888;28;20033;-70
2022/02/28 03:27:21;;;;;;;9.73;3.42;;;4.90;2.30;;;;;;5034589;28;20041;-70
2022/02/28 03:29:46;;;;;;;9.57;3.08;;;5.00;1.00;;;;;;5034103;28;20512;-70
2022/02/28 03:32:12;;;;;;;7.65;2.53;;;5.00;1.00;;;;;;5034243;28;20037;-70
2022/02/28 03:34:38;;;;;;;7.05;2.80;;;5.20;1.00;;;;;;5034786;28;20041;-70
2022/02/28 03:37:04;;;;;;;7.10;2.97;;;5.20;1.00;;;;;;5034578;28;20045;-70
2022/02/28 03:39:30;;;;;;;8.07;3.17;;;5.30;1.00;;;;;;5034574;28;20044;-70
2022/02/28 03:41:56;;;;;;;10.85;3.85;;;5.30;1.00;;;;;;5034140;28;20034;-70
2022/02/28 03:44:22;;;;;;;11.93;4.05;;;5.30;1.00;;;;;;5034280;28;20041;-70
2022/02/28 03:46:51;;;;;;;9.80;3.83;;;5.40;1.00;;;;;;5034149;28;20040;-70
2022/02/28 03:49:19;;;;;;;10.15;3.88;;;5.40;1.00;;;;;;5034398;28;20496;-70
2022/02/28 03:51:45;;;;;;;9.77;3.40;;;5.40;1.00;;;;;;5034058;28;20045;-70
2022/02/28 03:54:12;;;;;;;12.15;3.85;;;5.40;1.00;;;;;;5034620;28;20073;-69
2022/02/28 03:56:40;;;;;;;7.47;3.47;;;5.40;1.00;;;;;;5034299;28;20037;-70
2022/02/28 03:59:06;;;;;;;7.43;3.53;;;5.40;1.00;;;;;;5033852;28;20045;-70
2022/02/28 04:01:32;;;;;;;10.30;3.72;;;5.40;1.00;;;;;;5038292;28;20050;-70
2022/02/28 04:03:59;;;;;;;10.73;3.22;;;5.40;1.00;;;;;;5038591;28;20041;-70
2022/02/28 04:06:25;;;;;;;6.07;3.00;;;5.40;1.00;;;;;;5038767;28;20037;-70
2022/02/28 04:08:51;;;;;;;10.43;3.40;;;6.10;1.00;;;;;;5038194;28;20095;-70
2022/02/28 04:11:17;;;;;;;8.95;3.60;;;5.30;1.00;;;;;;5038447;28;20041;-70
2022/02/28 04:13:43;;;;;;;8.35;3.28;;;5.30;1.00;;;;;;5038722;28;20091;-70
2022/02/28 04:16:09;;;;;;;9.43;4.32;;;5.20;1.00;;;;;;5037917;28;20041;-69
2022/02/28 04:18:35;;;;;;;11.23;3.40;;;5.20;1.00;;;;;;5037966;28;20041;-70
2022/02/28 04:21:01;;;;;;;11.35;3.60;;;5.20;1.00;;;;;;5037680;28;20420;-69
2022/02/28 04:23:26;;;;;;;6.35;3.35;;;5.20;1.00;;;;;;5037979;28;20116;-70
2022/02/28 04:25:52;;;;;;;8.75;3.30;;;5.30;1.00;;;;;;5038437;28;20132;-70
2022/02/28 04:28:18;;;;;;;7.88;2.78;;;5.30;1.00;;;;;;5037844;28;20041;-70
2022/02/28 04:30:44;;;;;;;7.63;1.73;;;5.20;1.00;;;;;;5037814;28;20041;-70
2022/02/28 04:33:10;;;;;;;8.32;2.58;;;5.20;1.00;;;;;;5037766;28;20041;-70
2022/02/28 04:35:35;;;;;;;4.38;1.98;;;5.20;1.00;;;;;;5037742;28;20455;-70
2022/02/28 04:38:07;;;;;;;8.48;3.05;;;5.10;1.00;;;;;;5037628;28;20045;-70
2022/02/28 04:40:34;;;;;;;7.10;2.22;;;5.00;1.00;;;;;;5037975;28;20045;-69
2022/02/28 04:43:00;;;;;;;9.00;2.38;;;5.00;1.00;;;;;;5037868;28;20046;-70
2022/02/28 04:45:27;;;;;;;7.75;1.80;;;4.90;1.00;;;;;;5037650;28;20052;-70
2022/02/28 04:47:53;;;;;;;5.30;2.10;;;4.90;1.00;;;;;;5037931;28;20503;-70
2022/02/28 04:50:19;;;;;;;6.53;2.25;;;4.80;1.00;;;;;;5037112;28;20033;-70
2022/02/28 04:52:45;;;;;;;7.78;3.00;;;4.70;2.80;;;;;;5037734;28;20059;-70
2022/02/28 04:55:11;;;;;;;6.75;2.33;;;4.60;6.30;;;;;;5037643;28;20182;-70
2022/02/28 04:57:40;;;;;;;10.80;2.83;;;4.70;11.70;;;;;;5037404;28;20052;-70
2022/02/28 05:00:07;;;;;;;5.95;2.72;;;4.80;6.80;;;;;;5037307;28;20057;-70
2022/02/28 05:02:33;;;;;;;7.88;2.50;;;4.80;2.20;;;;;;5037629;28;20572;-70
2022/02/28 05:05:00;;;;;;;8.93;2.30;;;4.90;1.30;;;;;;5037335;28;20037;-70
2022/02/28 05:07:27;;;;;;;6.63;2.65;;;4.90;1.00;;;;;;5031171;28;20037;-70
2022/02/28 05:09:53;;;;;;;3.70;2.38;;;4.90;1.00;;;;;;5037692;28;20037;-70
2022/02/28 05:12:18;;;;;;;9.55;3.28;;;4.90;1.20;;;;;;5036505;28;20564;-70
2022/02/28 05:14:44;;;;;;;8.93;3.50;;;4.80;2.60;;;;;;5036848;28;20120;-70
2022/02/28 05:17:10;;;;;;;8.65;2.63;;;4.70;1.00;;;;;;5037167;28;20041;-70
2022/02/28 05:19:36;;;;;;;8.38;1.90;;;4.60;1.00;;;;;;5037519;28;20044;-70
2022/02/28 05:22:03;;;;;;;4.55;2.00;;;4.40;2.50;;;;;;5037176;28;20037;-70
2022/02/28 05:24:30;;;;;;;8.75;2.33;;;4.30;16.30;;;;;;5036830;28;20029;-70
2022/02/28 05:26:56;;;;;;;6.68;2.08;;;4.30;15.80;;;;;;5037010;28;20163;-70
2022/02/28 05:29:22;;;;;;;8.60;2.30;;;4.30;20.50;;;;;;5036949;28;20072;-70
2022/02/28 05:31:47;;;;;;;6.60;2.50;;;4.40;18.20;;;;;;5037125;28;20037;-70
2022/02/28 05:34:13;;;;;;;9.15;3.10;;;4.60;14.60;;;;;;5036617;28;20041;-70
2022/02/28 05:36:39;;;;;;;9.82;3.20;;;4.70;6.90;;;;;;5036569;28;20072;-70
2022/02/28 05:39:05;;;;;;;9.35;2.95;;;4.80;5.30;;;;;;5036770;28;20084;-70
2022/02/28 05:41:31;;;;;;;7.18;2.67;;;4.80;3.30;;;;;;5037023;28;20045;-70
2022/02/28 05:43:57;;;;;;;7.20;2.38;;;4.80;3.30;;;;;;5036998;28;20465;-70
2022/02/28 05:46:23;;;;;;;9.30;2.22;;;4.80;4.60;;;;;;5036521;28;20041;-70
2022/02/28 05:48:49;;;;;;;5.13;2.10;;;4.80;3.20;;;;;;5036356;28;20083;-70
2022/02/28 05:51:15;;;;;;;10.90;2.25;;;4.80;2.00;;;;;;5036610;28;20042;-70
2022/02/28 05:53:41;;;;;;;7.35;2.30;;;4.60;2.40;;;;;;5036559;28;20045;-69
2022/02/28 05:56:07;;;;;;;7.70;2.55;;;4.60;8.10;;;;;;5036510;28;20100;-69
2022/02/28 05:58:33;;;;;;;5.80;2.22;;;4.60;10.10;;;;;;5036343;28;20092;-70
2022/02/28 06:00:59;;;;;;;5.20;2.42;;;4.60;8.80;;;;;;5035857;28;20191;-70
2022/02/28 06:03:24;;;;;;;9.75;2.53;;;4.60;11.60;;;;;;5035773;28;20065;-70
2022/02/28 06:05:50;;;;;;;5.55;2.30;;;4.70;8.60;;;;;;5036507;28;20110;-70
2022/02/28 06:08:16;;;;;;;6.20;2.45;;;4.70;3.10;;;;;;5035744;28;20495;-70
2022/02/28 06:10:42;;;;;;;5.88;2.00;;;4.60;3.00;;;;;;5036509;28;20045;-69
2022/02/28 06:13:08;;;;;;;6.22;1.90;;;4.60;6.00;;;;;;5035917;28;20040;-70
2022/02/28 06:15:34;;;;;;;10.55;2.65;;;4.60;9.00;;;;;;5035870;28;20484;-70
2022/02/28 06:18:01;;;;;;;6.38;3.08;;;4.60;5.90;;;;;;5035452;28;20099;-70
2022/02/28 06:20:28;;;;;;;9.68;3.30;;;4.50;8.60;;;;;;5035138;28;20082;-70
2022/02/28 06:22:54;;;;;;;7.10;2.67;;;4.60;8.90;;;;;;5033780;28;20037;-70
2022/02/28 06:25:20;;;;;;;9.65;2.33;;;4.60;6.00;;;;;;5034372;28;20041;-69
2022/02/28 06:27:46;;;;;;;9.60;2.40;;;4.60;12.50;;;;;;5031838;28;20091;-70
2022/02/28 06:30:12;;;;;;;3.70;2.20;;;4.80;4.10;;;;;;5032795;28;20073;-69
2022/02/28 06:32:38;;;;;;;6.13;2.35;;;4.70;1.00;;;;;;5033689;28;20126;-70
2022/02/28 06:35:05;;;;;;;5.75;2.63;;;4.60;3.40;;;;;;5033291;28;20045;-70
2022/02/28 06:37:31;;;;;;;8.15;2.53;;;4.50;7.10;;;;;;5035243;28;20049;-70
2022/02/28 06:39:57;;;;;;;7.07;2.42;;;4.50;13.90;;;;;;5035707;28;20109;-69
2022/02/28 06:42:23;;;;;;;9.15;2.60;;;4.60;9.30;;;;;;5035556;28;20043;-69
2022/02/28 06:44:48;;;;;;;7.60;2.70;;;4.60;11.20;;;;;;5035118;28;20501;-70
2022/02/28 06:47:14;;;;;;;4.53;2.30;;;4.60;8.60;;;;;;5034932;28;20045;-70
2022/02/28 06:49:40;;;;;;;6.22;2.58;;;4.60;9.70;;;;;;5035495;28;20045;-70
2022/02/28 06:52:06;;;;;;;6.78;2.95;;;4.70;5.30;;;;;;5035015;28;20115;-70
2022/02/28 06:54:32;;;;;;;6.40;2.58;;;4.80;1.00;;;;;;5035029;28;20041;-70
2022/02/28 06:56:58;;;;;;;8.38;2.53;;;4.90;1.00;;;;;;5034709;28;20037;-71
2022/02/28 06:59:24;;;;;;;5.28;3.15;;;5.10;1.00;;;;;;5034942;28;20044;-72
2022/02/28 07:01:50;;;;;;;9.88;2.92;;;5.10;1.00;;;;;;5034556;28;20053;-72
2022/02/28 07:04:15;;;;;;;8.32;2.90;;;5.20;1.00;;;;;;5034952;28;20040;-72
2022/02/28 07:06:41;;;;;;;8.68;3.00;;;6.10;1.00;;;;;;5035468;28;20048;-72
2022/02/28 07:09:07;;;;;;;8.35;3.28;;;5.60;1.00;;;;;;5034916;28;20041;-72
2022/02/28 07:11:34;;;;;;;9.00;2.90;;;5.80;1.00;;;;;;5035344;28;20045;-72
2022/02/28 07:14:03;;;;;;;5.57;2.33;;;6.00;1.00;;;;;;5034621;28;20504;-72
2022/02/28 07:16:29;;;;;;;7.45;4.00;;;6.10;1.00;;;;;;5035060;28;20040;-71
2022/02/28 07:18:55;;;;;;;10.65;4.53;;;6.40;1.00;;;;;;5034552;28;20041;-71
2022/02/28 07:21:20;;;;;;;13.02;4.88;;;6.50;1.00;;;;;;5034997;28;20381;-71
2022/02/28 07:23:46;;;;;;;18.85;6.85;;;6.40;1.00;;;;;;5034932;28;20044;-72
2022/02/28 07:26:12;;;;;;;13.77;7.68;;;6.60;1.00;;;;;;5035176;28;20132;-72
2022/02/28 07:28:38;;;;;;;12.40;7.57;;;6.50;1.00;;;;;;5034802;28;20037;-71
2022/02/28 07:31:03;;;;;;;15.55;7.57;;;6.50;1.00;;;;;;5034819;28;20041;-72
2022/02/28 07:33:29;;;;;;;19.50;8.15;;;6.50;1.00;;;;;;5033939;28;20040;-71
2022/02/28 07:35:55;;;;;;;12.65;7.25;;;6.50;1.00;;;;;;5034382;28;20049;-72
2022/02/28 07:38:21;;;;;;;12.38;6.25;;;6.60;1.00;;;;;;5028977;28;20176;-72
2022/02/28 07:40:47;;;;;;;11.80;5.57;;;6.80;1.00;;;;;;5017242;28;20053;-71
2022/02/28 07:43:13;;;;;;;12.90;5.28;;;6.80;1.00;;;;;;5016038;28;20037;-72
2022/02/28 07:45:39;;;;;;;11.30;5.68;;;6.70;1.00;;;;;;5023500;28;20034;-72
2022/02/28 07:48:05;;;;;;;19.27;6.40;;;6.80;1.00;;;;;;5021903;28;20396;-72
2022/02/28 07:50:31;;;;;;;11.88;5.82;;;6.70;1.00;;;;;;5014269;28;20053;-70
2022/02/28 07:52:57;;;;;;;9.50;4.07;;;6.60;1.00;;;;;;5024413;28;20053;-70
2022/02/28 07:55:23;;;;;;;6.85;2.08;;;6.40;1.00;;;;;;5025568;28;20038;-70
2022/02/28 07:57:49;;;;;;;11.13;2.00;;;6.40;1.00;;;;;;5014775;28;20060;-70
2022/02/28 08:00:15;;;;;;;6.03;2.42;;;6.40;1.00;;;;;;5014376;28;20077;-70
2022/02/28 08:02:41;;;;;;;7.43;2.20;;;6.30;1.00;;;;;;5014724;28;20069;-70
2022/02/28 08:05:08;;;;;;;9.68;3.00;;;6.30;1.00;;;;;;5022592;28;20064;-70
2022/02/28 08:07:39;;;;;;;4.55;1.40;;;6.40;1.00;;;;;;5017436;28;20045;-70
2022/02/28 08:10:05;;;;;;;;;;;6.40;1.00;;;;;;5016488;28;20046;-70
2022/02/28 08:12:31;;;;;;;6.38;2.10;;;6.30;1.00;;;;;;5029724;28;19920;-70
2022/02/28 08:14:57;;;;;;;11.52;2.00;;;5.10;1.00;;;;;;5032423;28;20132;-70
2022/02/28 08:17:23;;;;;;;6.70;2.13;;;6.30;1.00;;;;;;5032146;28;20538;-70
2022/02/28 08:19:49;;;;;;;6.07;1.83;;;6.40;1.00;;;;;;5032300;28;20041;-70
2022/02/28 08:22:15;;;;;;;7.07;2.50;;;6.30;1.00;;;;;;5030756;28;20041;-70
2022/02/28 08:24:40;;;;;;;5.53;1.77;;;6.30;1.00;;;;;;5028037;28;20504;-70
2022/02/28 08:27:06;;;;;;;5.53;1.60;;;6.40;1.00;;;;;;5025190;28;20066;-70
2022/02/28 08:29:32;;;;;;;10.00;2.65;;;6.40;1.00;;;;;;5028780;28;20045;-69
2022/02/28 08:31:58;;;;;;;11.82;3.10;;;6.50;1.00;;;;;;5025791;28;20124;-70
2022/02/28 08:34:24;;;;;;;6.75;2.15;;;6.60;1.00;;;;;;5020331;28;20037;-70
2022/02/28 08:36:50;;;;;;;3.42;1.73;;;6.60;1.00;;;;;;5021637;28;20535;-70
2022/02/28 08:39:16;;;;;;;14.10;4.00;;;6.90;1.00;;;;;;5030244;28;20053;-70
2022/02/28 08:41:42;;;;;;;8.70;3.58;;;7.20;1.00;;;;;;5031274;28;20148;-70
2022/02/28 08:44:08;;;;;;;19.08;6.03;;;7.10;1.00;;;;;;5026525;28;20060;-70
2022/02/28 08:46:36;;;;;;;9.00;3.55;;;6.90;1.00;;;;;;5029264;28;20040;-70
2022/02/28 08:49:03;;;;;;;11.55;3.90;;;6.80;1.00;;;;;;5032178;28;20041;-70
2022/02/28 08:51:29;;;;;;;6.20;2.90;;;6.80;1.00;;;;;;5030704;28;20568;-70
2022/02/28 08:53:55;;;;;;;11.52;2.90;;;6.90;1.00;;;;;;5030385;28;20068;-70
2022/02/28 08:56:21;;;;;;;7.60;1.95;;;6.90;1.00;;;;;;5031758;28;20072;-70
2022/02/28 08:58:47;;;;;;;7.18;2.75;;;6.90;1.00;;;;;;5032767;28;20099;-71
2022/02/28 09:01:13;;;;;;;6.40;2.45;;;7.00;1.00;;;;;;5013927;28;20088;-71
2022/02/28 09:03:39;;;;;;;7.45;2.70;;;7.00;1.00;;;;;;5028873;28;20037;-71
2022/02/28 09:06:05;;;;;;;7.18;2.88;;;7.00;1.00;;;;;;5031546;28;20129;-71
2022/02/28 09:08:31;;;;;;;5.55;2.35;;;7.00;1.00;;;;;;5031452;28;20100;-71
2022/02/28 09:10:58;;;;;;;8.95;2.28;;;7.10;1.00;;;;;;5034631;28;20128;-71
2022/02/28 09:13:26;;;;;;;6.57;2.10;;;7.10;1.00;;;;;;5033067;28;20041;-72
2022/02/28 09:15:52;;;;;;;11.27;2.17;;;7.20;1.00;;;;;;5030887;28;20500;-71
2022/02/28 09:18:19;;;;;;;14.88;5.43;;;7.30;1.00;;;;;;5031574;28;20049;-71
2022/02/28 09:20:45;;;;;;;8.20;1.83;;;7.30;1.00;;;;;;5018686;28;20049;-73
2022/02/28 09:23:11;;;;;;;6.70;1.75;;;7.30;1.00;;;;;;5034902;28;20393;-74
2022/02/28 09:25:37;;;;;;;3.05;1.40;;;7.40;1.00;;;;;;5035853;28;20493;-74
2022/02/28 09:28:03;;;;;;;6.85;1.85;;;7.50;1.00;;;;;;5035924;28;20037;-74
2022/02/28 09:30:29;;;;;;;10.05;2.10;;;7.40;1.00;;;;;;5035068;28;20572;-74
2022/02/28 09:32:55;;;;;;;8.95;1.77;;;7.50;1.00;;;;;;5035592;28;20037;-73
2022/02/28 09:35:24;;;;;;;7.35;2.28;;;7.40;1.00;;;;;;5000666;28;20038;-74
2022/02/28 09:37:50;;;;;;;4.30;1.77;;;7.40;1.00;;;;;;5027822;28;20524;-74
2022/02/28 09:40:17;;;;;;;6.90;2.30;;;7.50;1.00;;;;;;5024175;28;20068;-74
2022/02/28 09:42:45;;;;;;;10.23;1.50;;;7.50;1.00;;;;;;5034408;28;20084;-74
2022/02/28 09:45:10;;;;;;;9.52;1.33;;;7.60;1.00;;;;;;5016534;28;20057;-73
2022/02/28 09:47:39;;;;;;;9.15;2.00;;;7.70;1.00;;;;;;5021425;28;20381;-74
2022/02/28 09:50:05;;;;;;;6.55;1.42;;;7.80;1.00;;;;;;5033984;28;20061;-73
2022/02/28 09:52:31;;;;;;;5.90;1.40;;;7.70;1.00;;;;;;5034959;28;20038;-73
2022/02/28 09:54:57;;;;;;;6.70;1.13;;;7.70;1.00;;;;;;5035329;28;20049;-73
2022/02/28 09:57:23;;;;;;;7.45;1.27;;;7.80;1.00;;;;;;5035491;28;20044;-73
2022/02/28 09:59:49;;;;;;;8.95;1.20;;;7.90;1.00;;;;;;5008710;28;20444;-75
2022/02/28 10:02:15;;;;;;;6.78;1.30;;;7.90;1.00;;;;;;4976890;28;20054;-74
2022/02/28 10:04:42;;;;;;;7.40;1.83;;;8.10;1.00;;;;;;4990112;28;20042;-74
2022/02/28 10:07:22;;;;;;;6.75;1.45;;;8.20;1.00;;;;;;4994915;28;20575;-73
2022/02/28 10:10:08;;;;;;;5.07;1.00;;;8.20;1.00;;;;;;4993188;28;20038;-74
2022/02/28 10:12:34;;;;;;;9.70;1.45;;;8.30;1.00;;;;;;4993119;28;20346;-73
2022/02/28 10:15:09;;;;;;;23.90;12.07;;;8.50;1.00;;;;;;4999870;28;20046;-72
2022/02/28 10:17:46;;;;;;;63.40;28.05;;;8.80;1.00;;;;;;4994985;28;20051;-72
2022/02/28 10:20:34;;;;;;;33.42;14.73;;;8.90;1.00;;;;;;4993509;28;20509;-72
2022/02/28 10:23:06;;;;;;;29.98;13.32;;;9.10;1.00;;;;;;4994891;28;20038;-72
2022/02/28 10:25:46;;;;;;;24.20;11.20;;;9.40;1.00;;;;;;4996167;28;20441;-72
2022/02/28 10:28:25;;;;;;;17.17;8.50;;;9.70;1.00;;;;;;4995459;28;20114;-72
2022/02/28 10:31:00;;;;;;;11.52;5.72;;;9.80;1.00;;;;;;4989471;28;20498;-72
2022/02/28 10:33:34;;;;;;;7.45;3.42;;;9.80;1.00;;;;;;5004280;28;20096;-72
2022/02/28 10:36:13;;;;;;;10.20;2.70;;;9.90;1.00;;;;;;4982682;28;20074;-72
2022/02/28 10:38:51;;;;;;;17.42;6.90;;;10.40;1.00;;;;;;4976227;28;20054;-72
2022/02/28 10:41:21;;;;;;;6.55;1.85;;;10.90;1.00;;;;;;4979694;28;20568;-72
2022/02/28 10:43:48;;;;;;;9.15;3.15;;;11.30;1.00;;;;;;4983485;28;20037;-72
2022/02/28 10:46:20;;;;;;;6.65;1.33;;;11.60;1.00;;;;;;4994850;28;20066;-72
2022/02/28 10:49:00;;;;;;;7.82;2.97;;;11.60;1.00;;;;;;4990796;28;20038;-72
2022/02/28 10:51:26;;;;;;;4.82;1.90;;;11.60;1.00;;;;;;4995866;28;20038;-72
2022/02/28 10:54:18;;;;;;;5.82;1.80;;;11.60;1.00;;;;;;4995253;28;20038;-72
2022/02/28 10:56:51;;;;;;;8.52;2.22;;;12.00;1.00;;;;;;4995337;28;20042;-72
2022/02/28 10:59:19;;;;;;;10.00;2.22;;;12.10;1.00;;;;;;4994316;28;20052;-72
2022/02/28 11:01:45;;;;;;;6.78;1.58;;;12.10;1.00;;;;;;5021289;28;20057;-72
2022/02/28 11:04:11;;;;;;;7.40;2.13;;;12.20;1.00;;;;;;5020463;28;20068;-72
2022/02/28 11:06:38;;;;;;;10.02;2.95;;;12.50;1.00;;;;;;5021530;28;20045;-72
2022/02/28 11:09:05;;;;;;;11.00;4.28;;;12.70;1.00;;;;;;5015491;28;20046;-72
2022/02/28 11:11:32;;;;;;;24.75;10.50;;;12.80;1.00;;;;;;5014949;28;20043;-72
2022/02/28 11:13:59;;;;;;;26.40;12.52;;;13.00;1.00;;;;;;5016706;28;20061;-72
2022/02/28 11:16:30;;;;;;;15.98;7.07;;;13.20;1.00;;;;;;5016717;28;20042;-72
2022/02/28 11:18:56;;;;;;;6.97;2.05;;;13.20;1.00;;;;;;4997373;28;20045;-72
2022/02/28 11:21:23;;;;;;;4.28;1.30;;;13.10;1.00;;;;;;5015954;28;20038;-72
2022/02/28 11:23:49;;;;;;;4.72;1.30;;;13.00;1.00;;;;;;5015251;28;20042;-72
2022/02/28 11:26:17;;;;;;;19.60;7.47;;;13.10;1.00;;;;;;5013429;28;20040;-72
2022/02/28 11:28:43;;;;;;;14.85;6.32;;;13.10;1.00;;;;;;5034785;28;20167;-72
2022/02/28 11:31:15;;;;;;;16.08;7.07;;;13.10;1.00;;;;;;5031876;28;20531;-72
2022/02/28 11:33:59;;;;;;;9.15;2.58;;;13.30;1.00;;;;;;5022109;28;20049;-73
2022/02/28 11:36:25;;;;;;;6.32;1.67;;;12.80;1.00;;;;;;5016936;28;20495;-73
2022/02/28 11:38:51;;;;;;;5.03;1.40;;;12.60;1.00;;;;;;5031838;28;20128;-72
2022/02/28 11:41:19;;;;;;;4.88;1.40;;;12.80;1.00;;;;;;5031905;28;20073;-73
2022/02/28 11:43:51;;;;;;;4.85;1.13;;;12.80;1.00;;;;;;5023962;28;20037;-73
2022/02/28 11:46:19;;;;;;;5.57;1.60;;;12.80;1.00;;;;;;5024062;28;20126;-73
2022/02/28 11:48:53;;;;;;;7.03;1.60;;;12.90;1.00;;;;;;5026148;28;20042;-73
2022/02/28 11:51:21;;;;;;;8.50;2.58;;;13.10;1.00;;;;;;5032077;28;20042;-73
2022/02/28 11:53:52;;;;;;;7.65;2.47;;;13.30;1.00;;;;;;5024548;28;20124;-74
2022/02/28 11:56:18;;;;;;;5.20;1.70;;;13.00;1.00;;;;;;5018503;28;20113;-73
2022/02/28 11:58:54;;;;;;;5.85;1.40;;;12.60;1.00;;;;;;5027419;28;20049;-73
2022/02/28 12:01:33;;;;;;;6.13;1.23;;;12.40;1.00;;;;;;5033441;28;20049;-73
2022/02/28 12:04:16;;;;;;;4.85;1.10;;;12.20;1.00;;;;;;5033313;28;20040;-73
2022/02/28 12:06:59;;;;;;;3.85;1.33;;;12.20;1.00;;;;;;5031564;28;20116;-73
2022/02/28 12:09:32;;;;;;;6.78;1.50;;;12.00;1.00;;;;;;5028322;28;20121;-73
2022/02/28 12:12:11;;;;;;;5.40;1.27;;;12.00;1.00;;;;;;5018943;28;20582;-73
2022/02/28 12:14:55;;;;;;;4.68;1.20;;;12.10;1.00;;;;;;5031266;28;20083;-72
2022/02/28 12:17:34;;;;;;;3.00;1.08;;;12.10;1.00;;;;;;5019566;28;20045;-73
2022/02/28 12:20:32;;;;;;;5.43;1.70;;;12.30;1.00;;;;;;5030279;28;20443;-73
2022/02/28 12:23:05;;;;;;;5.47;1.20;;;12.40;1.00;;;;;;5023412;28;20036;-73
2022/02/28 12:25:58;;;;;;;3.20;1.27;;;12.50;1.00;;;;;;5032189;28;20052;-73
2022/02/28 12:28:43;;;;;;;7.82;1.40;;;12.20;1.00;;;;;;5036192;28;20044;-74
2022/02/28 12:31:17;;;;;;;5.35;1.40;;;12.30;1.00;;;;;;5035403;28;20037;-75
2022/02/28 12:33:43;;;;;;;3.10;0.98;;;12.40;1.00;;;;;;5019359;28;20038;-75
2022/02/28 12:36:15;;;;;;;2.55;1.00;;;12.40;1.00;;;;;;5036145;28;20060;-75
2022/02/28 12:38:50;;;;;;;3.10;1.27;;;12.50;1.00;;;;;;5035933;28;20053;-74
2022/02/28 12:41:34;;;;;;;3.95;1.00;;;12.30;1.00;;;;;;5031285;28;20118;-74
2022/02/28 12:44:07;;;;;;;5.57;1.50;;;12.10;1.00;;;;;;5010038;28;20034;-74
2022/02/28 12:46:38;;;;;;;5.13;1.20;;;12.20;1.00;;;;;;5016443;28;20042;-74
2022/02/28 12:49:06;;;;;;;5.53;1.40;;;12.00;1.00;;;;;;5028789;28;20053;-76
2022/02/28 12:51:34;;;;;;;3.25;1.08;;;12.00;1.00;;;;;;5023134;28;20042;-76
2022/02/28 12:54:14;;;;;;;5.00;1.02;;;12.30;1.00;;;;;;4998573;28;20078;-75
2022/02/28 12:56:56;;;;;;;5.70;1.07;;;12.40;1.00;;;;;;5016063;28;20041;-75
2022/02/28 12:59:36;;;;;;;3.15;1.00;;;12.50;1.00;;;;;;5036235;28;20324;-73
2022/02/28 13:02:04;;;;;;;4.60;1.40;;;12.60;1.00;;;;;;5034758;28;20148;-73
2022/02/28 13:04:30;;;;;;;4.07;1.33;;;12.80;1.00;;;;;;5030998;28;20087;-73